Pompeii, Michigan
Current Conditions -  °F | °C
As of 5:51 AM on Friday 19 Dec 2014 (Local Time) from KAMN Reporting Station
Overcast Overcast  
Wind Chill: 18°   Ceiling: 1800
Heat Index: 25°   Visibility: 10mi
Dew Point: 19°   Wind: 6mph
Humidity: 81%   Direction: 340°NNW
Pressure: 30.25"   Gusts: NA
Location:  43.18°N, 84.6°W
Report Text: KAMN 191051Z AUTO 34005KT 10SM OVC018 M04/M07 A3025 RMK AO2 T10411070
Loading
Personal Weather Stations






























Interactive Weather Map New forecast layout! Learn more

10-Day Weather Forecast

Advertisements
Track Severe Weather on mobile